sensor_id;sensor_type;location;lat;lon;timestamp;temperature;humidity
27376;DHT22;14844;51.302;6.354;2023-07-09T00:00:59;21.90;92.60
27376;DHT22;14844;51.302;6.354;2023-07-09T00:03:24;21.90;92.70
27376;DHT22;14844;51.302;6.354;2023-07-09T00:05:50;22.00;92.70
27376;DHT22;14844;51.302;6.354;2023-07-09T00:08:23;21.90;92.70
27376;DHT22;14844;51.302;6.354;2023-07-09T00:10:49;22.10;92.30
27376;DHT22;14844;51.302;6.354;2023-07-09T00:13:15;22.20;92.10
27376;DHT22;14844;51.302;6.354;2023-07-09T00:15:40;22.10;92.20
27376;DHT22;14844;51.302;6.354;2023-07-09T00:18:07;22.10;92.20
27376;DHT22;14844;51.302;6.354;2023-07-09T00:20:33;21.90;92.80
27376;DHT22;14844;51.302;6.354;2023-07-09T00:22:58;21.90;93.10
27376;DHT22;14844;51.302;6.354;2023-07-09T00:25:24;21.80;93.10
27376;DHT22;14844;51.302;6.354;2023-07-09T00:27:50;21.80;93.30
27376;DHT22;14844;51.302;6.354;2023-07-09T00:30:17;21.70;93.20
27376;DHT22;14844;51.302;6.354;2023-07-09T00:32:43;21.70;93.20
27376;DHT22;14844;51.302;6.354;2023-07-09T00:35:10;21.60;93.60
27376;DHT22;14844;51.302;6.354;2023-07-09T00:37:40;21.50;93.60
27376;DHT22;14844;51.302;6.354;2023-07-09T00:40:09;21.40;93.80
27376;DHT22;14844;51.302;6.354;2023-07-09T00:42:35;21.40;94.00
27376;DHT22;14844;51.302;6.354;2023-07-09T00:45:00;21.30;94.20
27376;DHT22;14844;51.302;6.354;2023-07-09T00:50:11;21.10;94.60
27376;DHT22;14844;51.302;6.354;2023-07-09T00:52:50;21.00;94.90
27376;DHT22;14844;51.302;6.354;2023-07-09T00:55:17;20.90;95.10
27376;DHT22;14844;51.302;6.354;2023-07-09T00:57:45;20.90;95.80
27376;DHT22;14844;51.302;6.354;2023-07-09T01:00:11;20.90;95.90
27376;DHT22;14844;51.302;6.354;2023-07-09T01:02:41;20.70;96.10
27376;DHT22;14844;51.302;6.354;2023-07-09T01:05:08;20.70;96.10
27376;DHT22;14844;51.302;6.354;2023-07-09T01:07:36;20.60;96.20
27376;DHT22;14844;51.302;6.354;2023-07-09T01:10:02;20.50;96.80
27376;DHT22;14844;51.302;6.354;2023-07-09T01:12:27;20.50;97.30
27376;DHT22;14844;51.302;6.354;2023-07-09T01:14:53;20.30;97.60
27376;DHT22;14844;51.302;6.354;2023-07-09T01:17:24;20.30;97.90
27376;DHT22;14844;51.302;6.354;2023-07-09T01:19:53;20.20;98.20
27376;DHT22;14844;51.302;6.354;2023-07-09T01:22:19;20.20;98.50
27376;DHT22;14844;51.302;6.354;2023-07-09T01:25:02;20.10;98.60
27376;DHT22;14844;51.302;6.354;2023-07-09T01:27:32;20.10;98.60
27376;DHT22;14844;51.302;6.354;2023-07-09T01:29:59;20.10;98.80
27376;DHT22;14844;51.302;6.354;2023-07-09T01:32:25;20.20;99.30
27376;DHT22;14844;51.302;6.354;2023-07-09T01:34:52;20.30;99.40
27376;DHT22;14844;51.302;6.354;2023-07-09T01:37:18;20.20;99.40
27376;DHT22;14844;51.302;6.354;2023-07-09T01:39:47;20.10;99.60
27376;DHT22;14844;51.302;6.354;2023-07-09T01:42:13;20.10;99.80
27376;DHT22;14844;51.302;6.354;2023-07-09T01:44:38;20.00;99.90
27376;DHT22;14844;51.302;6.354;2023-07-09T01:47:05;19.90;99.90
27376;DHT22;14844;51.302;6.354;2023-07-09T01:49:31;19.90;99.90
27376;DHT22;14844;51.302;6.354;2023-07-09T01:52:01;19.80;99.90
27376;DHT22;14844;51.302;6.354;2023-07-09T01:54:31;19.80;99.90
27376;DHT22;14844;51.302;6.354;2023-07-09T01:57:03;19.80;99.90
27376;DHT22;14844;51.302;6.354;2023-07-09T01:59:38;19.80;99.90
27376;DHT22;14844;51.302;6.354;2023-07-09T02:02:07;19.90;99.90
27376;DHT22;14844;51.302;6.354;2023-07-09T02:04:32;19.90;99.90
27376;DHT22;14844;51.302;6.354;2023-07-09T02:06:58;19.80;99.90
27376;DHT22;14844;51.302;6.354;2023-07-09T02:09:23;19.70;99.90
27376;DHT22;14844;51.302;6.354;2023-07-09T02:11:48;19.60;99.90
27376;DHT22;14844;51.302;6.354;2023-07-09T02:14:14;19.60;99.90
27376;DHT22;14844;51.302;6.354;2023-07-09T02:16:39;19.60;99.90
27376;DHT22;14844;51.302;6.354;2023-07-09T02:19:05;19.50;99.90
27376;DHT22;14844;51.302;6.354;2023-07-09T02:21:31;19.50;99.90
27376;DHT22;14844;51.302;6.354;2023-07-09T02:23:56;19.40;99.90
27376;DHT22;14844;51.302;6.354;2023-07-09T02:26:22;19.40;99.90
27376;DHT22;14844;51.302;6.354;2023-07-09T02:28:47;19.40;99.90
27376;DHT22;14844;51.302;6.354;2023-07-09T02:31:13;19.40;99.90
27376;DHT22;14844;51.302;6.354;2023-07-09T02:33:40;19.30;99.90
27376;DHT22;14844;51.302;6.354;2023-07-09T02:36:06;19.30;99.90
27376;DHT22;14844;51.302;6.354;2023-07-09T02:38:31;19.20;99.90
27376;DHT22;14844;51.302;6.354;2023-07-09T02:40:57;19.20;99.90
27376;DHT22;14844;51.302;6.354;2023-07-09T02:43:22;19.10;99.90
27376;DHT22;14844;51.302;6.354;2023-07-09T02:45:48;19.10;99.90
27376;DHT22;14844;51.302;6.354;2023-07-09T02:48:13;19.10;99.90
27376;DHT22;14844;51.302;6.354;2023-07-09T02:50:38;19.10;99.90
27376;DHT22;14844;51.302;6.354;2023-07-09T02:53:04;19.10;99.90
27376;DHT22;14844;51.302;6.354;2023-07-09T02:55:29;19.10;99.90
27376;DHT22;14844;51.302;6.354;2023-07-09T02:57:55;19.10;99.90
27376;DHT22;14844;51.302;6.354;2023-07-09T03:00:20;19.20;99.90
27376;DHT22;14844;51.302;6.354;2023-07-09T03:02:46;19.20;99.90
27376;DHT22;14844;51.302;6.354;2023-07-09T03:05:11;19.20;99.90
27376;DHT22;14844;51.302;6.354;2023-07-09T03:07:37;19.30;99.90
27376;DHT22;14844;51.302;6.354;2023-07-09T03:10:02;19.30;99.90
27376;DHT22;14844;51.302;6.354;2023-07-09T03:12:28;19.30;99.90
27376;DHT22;14844;51.302;6.354;2023-07-09T03:14:53;19.30;99.90
27376;DHT22;14844;51.302;6.354;2023-07-09T03:17:18;19.30;99.90
27376;DHT22;14844;51.302;6.354;2023-07-09T03:19:44;19.40;99.90
27376;DHT22;14844;51.302;6.354;2023-07-09T03:22:09;19.40;99.90
27376;DHT22;14844;51.302;6.354;2023-07-09T03:24:35;19.50;99.90
27376;DHT22;14844;51.302;6.354;2023-07-09T03:27:00;19.60;99.90
27376;DHT22;14844;51.302;6.354;2023-07-09T03:29:26;19.60;99.90
27376;DHT22;14844;51.302;6.354;2023-07-09T03:31:51;19.60;99.90
27376;DHT22;14844;51.302;6.354;2023-07-09T03:34:16;19.50;99.90
27376;DHT22;14844;51.302;6.354;2023-07-09T03:36:42;19.40;99.90
27376;DHT22;14844;51.302;6.354;2023-07-09T03:39:07;19.40;99.90
27376;DHT22;14844;51.302;6.354;2023-07-09T03:41:33;19.40;99.90
27376;DHT22;14844;51.302;6.354;2023-07-09T03:43:59;19.40;99.90
27376;DHT22;14844;51.302;6.354;2023-07-09T03:46:24;19.40;99.90
27376;DHT22;14844;51.302;6.354;2023-07-09T03:48:50;19.40;99.90
27376;DHT22;14844;51.302;6.354;2023-07-09T03:51:16;19.40;99.90
27376;DHT22;14844;51.302;6.354;2023-07-09T03:53:41;19.50;99.90
27376;DHT22;14844;51.302;6.354;2023-07-09T03:56:06;19.60;99.90
27376;DHT22;14844;51.302;6.354;2023-07-09T03:58:32;19.60;99.90
27376;DHT22;14844;51.302;6.354;2023-07-09T04:00:57;19.70;99.90
27376;DHT22;14844;51.302;6.354;2023-07-09T04:03:23;19.80;99.90
27376;DHT22;14844;51.302;6.354;2023-07-09T04:05:48;19.90;99.90
27376;DHT22;14844;51.302;6.354;2023-07-09T04:08:14;20.00;99.90
27376;DHT22;14844;51.302;6.354;2023-07-09T04:10:39;20.20;99.90
27376;DHT22;14844;51.302;6.354;2023-07-09T04:13:05;20.30;99.90
27376;DHT22;14844;51.302;6.354;2023-07-09T04:15:31;20.60;99.90
27376;DHT22;14844;51.302;6.354;2023-07-09T04:17:57;20.70;99.90
27376;DHT22;14844;51.302;6.354;2023-07-09T04:20:22;20.90;99.90
27376;DHT22;14844;51.302;6.354;2023-07-09T04:22:48;21.10;99.90
27376;DHT22;14844;51.302;6.354;2023-07-09T04:25:14;21.30;99.90
27376;DHT22;14844;51.302;6.354;2023-07-09T04:27:40;21.50;99.90
27376;DHT22;14844;51.302;6.354;2023-07-09T04:30:07;21.70;99.90
27376;DHT22;14844;51.302;6.354;2023-07-09T04:32:34;21.70;99.90
27376;DHT22;14844;51.302;6.354;2023-07-09T04:34:59;21.70;99.90
27376;DHT22;14844;51.302;6.354;2023-07-09T04:37:24;21.70;99.90
27376;DHT22;14844;51.302;6.354;2023-07-09T04:39:50;21.70;99.90
27376;DHT22;14844;51.302;6.354;2023-07-09T04:42:16;21.70;99.90
27376;DHT22;14844;51.302;6.354;2023-07-09T04:44:42;21.80;99.90
27376;DHT22;14844;51.302;6.354;2023-07-09T04:47:07;21.90;99.90
27376;DHT22;14844;51.302;6.354;2023-07-09T04:49:33;22.00;99.90
27376;DHT22;14844;51.302;6.354;2023-07-09T04:51:59;22.00;99.90
27376;DHT22;14844;51.302;6.354;2023-07-09T04:54:25;22.10;99.90
27376;DHT22;14844;51.302;6.354;2023-07-09T04:56:50;22.20;99.90
27376;DHT22;14844;51.302;6.354;2023-07-09T04:59:16;22.30;99.90
27376;DHT22;14844;51.302;6.354;2023-07-09T05:01:41;22.30;99.90
27376;DHT22;14844;51.302;6.354;2023-07-09T05:04:07;22.50;99.90
27376;DHT22;14844;51.302;6.354;2023-07-09T05:06:33;22.60;99.90
27376;DHT22;14844;51.302;6.354;2023-07-09T05:08:58;22.60;99.90
27376;DHT22;14844;51.302;6.354;2023-07-09T05:11:24;22.80;99.90
27376;DHT22;14844;51.302;6.354;2023-07-09T05:13:49;22.80;99.90
27376;DHT22;14844;51.302;6.354;2023-07-09T05:16:14;22.90;99.50
27376;DHT22;14844;51.302;6.354;2023-07-09T05:18:40;23.00;99.20
27376;DHT22;14844;51.302;6.354;2023-07-09T05:21:05;23.10;99.00
27376;DHT22;14844;51.302;6.354;2023-07-09T05:23:31;23.20;99.00
27376;DHT22;14844;51.302;6.354;2023-07-09T05:26:00;23.20;98.70
27376;DHT22;14844;51.302;6.354;2023-07-09T05:28:25;23.40;98.50
27376;DHT22;14844;51.302;6.354;2023-07-09T05:30:51;23.40;98.30
27376;DHT22;14844;51.302;6.354;2023-07-09T05:33:17;23.50;98.10
27376;DHT22;14844;51.302;6.354;2023-07-09T05:35:43;23.60;97.80
27376;DHT22;14844;51.302;6.354;2023-07-09T05:38:09;23.80;98.10
27376;DHT22;14844;51.302;6.354;2023-07-09T05:40:34;23.90;97.30
27376;DHT22;14844;51.302;6.354;2023-07-09T05:43:00;24.00;97.20
27376;DHT22;14844;51.302;6.354;2023-07-09T05:45:25;24.00;96.70
27376;DHT22;14844;51.302;6.354;2023-07-09T05:47:51;24.20;96.30
27376;DHT22;14844;51.302;6.354;2023-07-09T05:50:16;24.30;96.10
27376;DHT22;14844;51.302;6.354;2023-07-09T05:52:42;24.40;95.80
27376;DHT22;14844;51.302;6.354;2023-07-09T05:55:07;24.60;95.80
27376;DHT22;14844;51.302;6.354;2023-07-09T05:57:33;24.70;95.40
27376;DHT22;14844;51.302;6.354;2023-07-09T05:59:58;24.80;95.30
27376;DHT22;14844;51.302;6.354;2023-07-09T06:02:24;24.90;95.10
27376;DHT22;14844;51.302;6.354;2023-07-09T06:04:49;25.00;95.10
27376;DHT22;14844;51.302;6.354;2023-07-09T06:07:15;25.10;94.80
27376;DHT22;14844;51.302;6.354;2023-07-09T06:09:40;25.10;94.80
27376;DHT22;14844;51.302;6.354;2023-07-09T06:12:06;25.30;94.60
27376;DHT22;14844;51.302;6.354;2023-07-09T06:14:32;25.20;94.40
27376;DHT22;14844;51.302;6.354;2023-07-09T06:16:58;25.30;94.50
27376;DHT22;14844;51.302;6.354;2023-07-09T06:19:24;25.30;94.10
27376;DHT22;14844;51.302;6.354;2023-07-09T06:21:49;25.40;93.90
27376;DHT22;14844;51.302;6.354;2023-07-09T06:24:15;25.40;94.10
27376;DHT22;14844;51.302;6.354;2023-07-09T06:26:40;25.50;94.00
27376;DHT22;14844;51.302;6.354;2023-07-09T06:29:06;25.70;93.70
27376;DHT22;14844;51.302;6.354;2023-07-09T06:31:31;25.80;93.20
27376;DHT22;14844;51.302;6.354;2023-07-09T06:33:58;26.00;93.20
27376;DHT22;14844;51.302;6.354;2023-07-09T06:36:23;26.20;92.90
27376;DHT22;14844;51.302;6.354;2023-07-09T06:38:49;26.20;92.60
27376;DHT22;14844;51.302;6.354;2023-07-09T06:41:15;26.20;92.70
27376;DHT22;14844;51.302;6.354;2023-07-09T06:43:41;26.40;92.70
27376;DHT22;14844;51.302;6.354;2023-07-09T06:46:07;26.50;92.30
27376;DHT22;14844;51.302;6.354;2023-07-09T06:48:34;26.70;92.00
27376;DHT22;14844;51.302;6.354;2023-07-09T06:51:00;26.80;91.80
27376;DHT22;14844;51.302;6.354;2023-07-09T06:53:26;27.00;92.00
27376;DHT22;14844;51.302;6.354;2023-07-09T06:55:52;27.10;91.40
27376;DHT22;14844;51.302;6.354;2023-07-09T06:58:24;27.30;91.10
27376;DHT22;14844;51.302;6.354;2023-07-09T07:00:51;27.50;90.90
27376;DHT22;14844;51.302;6.354;2023-07-09T07:03:16;27.70;90.80
27376;DHT22;14844;51.302;6.354;2023-07-09T07:05:46;27.80;90.60
27376;DHT22;14844;51.302;6.354;2023-07-09T07:08:13;27.70;90.30
27376;DHT22;14844;51.302;6.354;2023-07-09T07:10:39;27.70;90.40
27376;DHT22;14844;51.302;6.354;2023-07-09T07:13:04;27.70;90.40
27376;DHT22;14844;51.302;6.354;2023-07-09T07:15:29;27.70;90.30
27376;DHT22;14844;51.302;6.354;2023-07-09T07:17:55;27.90;90.40
27376;DHT22;14844;51.302;6.354;2023-07-09T07:20:20;27.80;90.40
27376;DHT22;14844;51.302;6.354;2023-07-09T07:22:46;28.00;90.30
27376;DHT22;14844;51.302;6.354;2023-07-09T07:25:12;28.00;90.10
27376;DHT22;14844;51.302;6.354;2023-07-09T07:27:37;28.20;90.20
27376;DHT22;14844;51.302;6.354;2023-07-09T07:30:04;28.50;89.90
27376;DHT22;14844;51.302;6.354;2023-07-09T07:32:29;28.60;89.80
27376;DHT22;14844;51.302;6.354;2023-07-09T07:34:55;28.70;88.50
27376;DHT22;14844;51.302;6.354;2023-07-09T07:37:20;28.80;88.80
27376;DHT22;14844;51.302;6.354;2023-07-09T07:39:49;29.00;88.10
27376;DHT22;14844;51.302;6.354;2023-07-09T07:42:14;29.20;88.50
27376;DHT22;14844;51.302;6.354;2023-07-09T07:44:40;29.30;88.30
27376;DHT22;14844;51.302;6.354;2023-07-09T07:47:05;29.60;87.00
27376;DHT22;14844;51.302;6.354;2023-07-09T07:49:31;29.80;86.70
27376;DHT22;14844;51.302;6.354;2023-07-09T07:51:57;29.90;86.20
27376;DHT22;14844;51.302;6.354;2023-07-09T07:54:22;30.00;85.20
27376;DHT22;14844;51.302;6.354;2023-07-09T07:56:47;30.10;85.10
27376;DHT22;14844;51.302;6.354;2023-07-09T07:59:13;30.10;85.40
27376;DHT22;14844;51.302;6.354;2023-07-09T08:01:39;30.10;85.00
27376;DHT22;14844;51.302;6.354;2023-07-09T08:04:05;30.20;85.20
27376;DHT22;14844;51.302;6.354;2023-07-09T08:06:31;30.30;84.40
27376;DHT22;14844;51.302;6.354;2023-07-09T08:08:57;30.30;84.90
27376;DHT22;14844;51.302;6.354;2023-07-09T08:11:22;30.40;84.50
27376;DHT22;14844;51.302;6.354;2023-07-09T08:13:47;30.70;84.40
27376;DHT22;14844;51.302;6.354;2023-07-09T08:16:13;30.90;83.80
27376;DHT22;14844;51.302;6.354;2023-07-09T08:18:38;31.10;82.70
27376;DHT22;14844;51.302;6.354;2023-07-09T08:21:04;31.20;82.40
27376;DHT22;14844;51.302;6.354;2023-07-09T08:23:30;31.30;82.20
27376;DHT22;14844;51.302;6.354;2023-07-09T08:25:56;31.60;81.30
27376;DHT22;14844;51.302;6.354;2023-07-09T08:28:21;31.70;80.80
27376;DHT22;14844;51.302;6.354;2023-07-09T08:30:47;31.60;80.60
27376;DHT22;14844;51.302;6.354;2023-07-09T08:33:12;31.80;81.50
27376;DHT22;14844;51.302;6.354;2023-07-09T08:35:38;32.00;80.20
27376;DHT22;14844;51.302;6.354;2023-07-09T08:38:07;32.20;79.10
27376;DHT22;14844;51.302;6.354;2023-07-09T08:40:32;32.40;78.80
27376;DHT22;14844;51.302;6.354;2023-07-09T08:43:01;32.50;78.40
27376;DHT22;14844;51.302;6.354;2023-07-09T08:48:07;32.80;75.90
27376;DHT22;14844;51.302;6.354;2023-07-09T08:52:59;33.20;75.00
27376;DHT22;14844;51.302;6.354;2023-07-09T08:55:27;33.20;74.90
27376;DHT22;14844;51.302;6.354;2023-07-09T08:58:03;33.30;73.10
27376;DHT22;14844;51.302;6.354;2023-07-09T09:00:34;33.50;73.00
27376;DHT22;14844;51.302;6.354;2023-07-09T09:03:08;33.50;74.00
27376;DHT22;14844;51.302;6.354;2023-07-09T09:05:36;33.60;73.20
27376;DHT22;14844;51.302;6.354;2023-07-09T09:10:39;33.60;73.90
27376;DHT22;14844;51.302;6.354;2023-07-09T09:13:10;33.70;73.50
27376;DHT22;14844;51.302;6.354;2023-07-09T09:15:39;33.90;71.90
27376;DHT22;14844;51.302;6.354;2023-07-09T09:18:31;34.00;70.30
27376;DHT22;14844;51.302;6.354;2023-07-09T09:23:38;34.30;70.20
27376;DHT22;14844;51.302;6.354;2023-07-09T09:26:05;34.30;69.20
27376;DHT22;14844;51.302;6.354;2023-07-09T09:28:35;34.50;68.40
27376;DHT22;14844;51.302;6.354;2023-07-09T09:31:01;34.60;67.30
27376;DHT22;14844;51.302;6.354;2023-07-09T09:33:36;34.50;68.20
27376;DHT22;14844;51.302;6.354;2023-07-09T09:36:02;34.70;68.90
27376;DHT22;14844;51.302;6.354;2023-07-09T09:38:28;34.80;67.00
27376;DHT22;14844;51.302;6.354;2023-07-09T09:40:59;34.90;66.40
27376;DHT22;14844;51.302;6.354;2023-07-09T09:43:24;34.80;66.10
27376;DHT22;14844;51.302;6.354;2023-07-09T09:45:56;34.70;66.50
27376;DHT22;14844;51.302;6.354;2023-07-09T09:48:28;34.60;66.90
27376;DHT22;14844;51.302;6.354;2023-07-09T09:50:53;34.80;67.30
27376;DHT22;14844;51.302;6.354;2023-07-09T09:53:21;34.60;66.40
27376;DHT22;14844;51.302;6.354;2023-07-09T09:55:47;34.60;67.20
27376;DHT22;14844;51.302;6.354;2023-07-09T09:58:15;34.70;66.90
27376;DHT22;14844;51.302;6.354;2023-07-09T10:00:46;34.90;67.20
27376;DHT22;14844;51.302;6.354;2023-07-09T10:03:13;35.10;65.30
27376;DHT22;14844;51.302;6.354;2023-07-09T10:05:40;35.30;64.30
27376;DHT22;14844;51.302;6.354;2023-07-09T10:08:13;35.20;63.80
27376;DHT22;14844;51.302;6.354;2023-07-09T10:10:40;35.30;65.10
27376;DHT22;14844;51.302;6.354;2023-07-09T10:13:21;35.30;64.80
27376;DHT22;14844;51.302;6.354;2023-07-09T10:21:00;35.40;62.40
27376;DHT22;14844;51.302;6.354;2023-07-09T10:23:32;35.50;61.60
27376;DHT22;14844;51.302;6.354;2023-07-09T10:26:11;35.70;60.60
27376;DHT22;14844;51.302;6.354;2023-07-09T10:28:47;35.90;59.50
27376;DHT22;14844;51.302;6.354;2023-07-09T10:31:26;35.90;58.50
27376;DHT22;14844;51.302;6.354;2023-07-09T10:34:05;35.90;59.40
27376;DHT22;14844;51.302;6.354;2023-07-09T10:36:42;35.70;58.10
27376;DHT22;14844;51.302;6.354;2023-07-09T10:39:22;35.70;57.90
27376;DHT22;14844;51.302;6.354;2023-07-09T10:41:49;35.90;57.30
27376;DHT22;14844;51.302;6.354;2023-07-09T10:44:16;35.90;56.90
27376;DHT22;14844;51.302;6.354;2023-07-09T10:46:45;36.10;57.30
27376;DHT22;14844;51.302;6.354;2023-07-09T10:49:14;36.20;57.30
27376;DHT22;14844;51.302;6.354;2023-07-09T10:51:55;36.30;55.80
27376;DHT22;14844;51.302;6.354;2023-07-09T10:54:33;36.30;56.80
27376;DHT22;14844;51.302;6.354;2023-07-09T10:57:04;36.50;56.00
27376;DHT22;14844;51.302;6.354;2023-07-09T10:59:35;36.40;55.20
27376;DHT22;14844;51.302;6.354;2023-07-09T11:02:12;36.40;55.40
27376;DHT22;14844;51.302;6.354;2023-07-09T11:04:46;36.30;57.00
27376;DHT22;14844;51.302;6.354;2023-07-09T11:07:14;36.40;55.40
27376;DHT22;14844;51.302;6.354;2023-07-09T11:09:41;36.50;55.40
27376;DHT22;14844;51.302;6.354;2023-07-09T11:12:12;36.60;55.40
27376;DHT22;14844;51.302;6.354;2023-07-09T11:17:34;37.00;54.30
27376;DHT22;14844;51.302;6.354;2023-07-09T11:20:06;37.30;53.80
27376;DHT22;14844;51.302;6.354;2023-07-09T11:22:38;37.40;53.30
27376;DHT22;14844;51.302;6.354;2023-07-09T11:25:05;37.50;52.30
27376;DHT22;14844;51.302;6.354;2023-07-09T11:27:31;37.80;52.40
27376;DHT22;14844;51.302;6.354;2023-07-09T11:29:58;37.70;51.40
27376;DHT22;14844;51.302;6.354;2023-07-09T11:32:24;37.40;49.70
27376;DHT22;14844;51.302;6.354;2023-07-09T11:34:50;37.30;51.80
27376;DHT22;14844;51.302;6.354;2023-07-09T11:37:15;37.50;49.00
27376;DHT22;14844;51.302;6.354;2023-07-09T11:39:42;37.90;49.00
27376;DHT22;14844;51.302;6.354;2023-07-09T11:42:22;37.70;48.70
27376;DHT22;14844;51.302;6.354;2023-07-09T11:44:48;37.80;48.90
27376;DHT22;14844;51.302;6.354;2023-07-09T11:47:17;37.70;50.80
27376;DHT22;14844;51.302;6.354;2023-07-09T11:49:52;37.00;50.40
27376;DHT22;14844;51.302;6.354;2023-07-09T11:52:22;37.50;51.60
27376;DHT22;14844;51.302;6.354;2023-07-09T11:54:49;38.00;49.90
27376;DHT22;14844;51.302;6.354;2023-07-09T11:57:16;38.10;52.10
27376;DHT22;14844;51.302;6.354;2023-07-09T11:59:43;38.00;50.50
27376;DHT22;14844;51.302;6.354;2023-07-09T12:02:29;38.10;51.70
27376;DHT22;14844;51.302;6.354;2023-07-09T12:04:57;37.60;49.80
27376;DHT22;14844;51.302;6.354;2023-07-09T12:07:22;37.60;51.00
27376;DHT22;14844;51.302;6.354;2023-07-09T12:09:49;37.60;51.10
27376;DHT22;14844;51.302;6.354;2023-07-09T12:12:17;37.50;50.70
27376;DHT22;14844;51.302;6.354;2023-07-09T12:14:42;37.40;51.60
27376;DHT22;14844;51.302;6.354;2023-07-09T12:17:08;37.10;50.80
27376;DHT22;14844;51.302;6.354;2023-07-09T12:19:34;36.80;51.60
27376;DHT22;14844;51.302;6.354;2023-07-09T12:21:59;36.80;52.80
27376;DHT22;14844;51.302;6.354;2023-07-09T12:24:26;36.80;52.50
27376;DHT22;14844;51.302;6.354;2023-07-09T12:26:52;36.80;52.80
27376;DHT22;14844;51.302;6.354;2023-07-09T12:29:18;36.40;53.40
27376;DHT22;14844;51.302;6.354;2023-07-09T12:31:44;36.60;53.20
27376;DHT22;14844;51.302;6.354;2023-07-09T12:34:11;36.80;53.10
27376;DHT22;14844;51.302;6.354;2023-07-09T12:36:38;36.60;52.60
27376;DHT22;14844;51.302;6.354;2023-07-09T12:39:08;36.40;53.90
27376;DHT22;14844;51.302;6.354;2023-07-09T12:41:36;36.30;53.50
27376;DHT22;14844;51.302;6.354;2023-07-09T12:44:03;36.20;52.50
27376;DHT22;14844;51.302;6.354;2023-07-09T12:46:29;36.20;52.20
27376;DHT22;14844;51.302;6.354;2023-07-09T12:48:55;36.30;54.50
27376;DHT22;14844;51.302;6.354;2023-07-09T12:51:21;36.30;54.30
27376;DHT22;14844;51.302;6.354;2023-07-09T12:54:34;36.30;55.30
27376;DHT22;14844;51.302;6.354;2023-07-09T12:56:35;36.20;52.60
27376;DHT22;14844;51.302;6.354;2023-07-09T12:59:01;36.30;53.30
27376;DHT22;14844;51.302;6.354;2023-07-09T13:01:27;36.20;54.20
27376;DHT22;14844;51.302;6.354;2023-07-09T13:03:58;36.10;55.10
27376;DHT22;14844;51.302;6.354;2023-07-09T13:06:27;36.10;55.80
27376;DHT22;14844;51.302;6.354;2023-07-09T13:08:58;35.70;55.90
27376;DHT22;14844;51.302;6.354;2023-07-09T13:11:24;35.40;56.00
27376;DHT22;14844;51.302;6.354;2023-07-09T13:13:57;34.90;57.70
27376;DHT22;14844;51.302;6.354;2023-07-09T13:16:23;34.50;58.20
27376;DHT22;14844;51.302;6.354;2023-07-09T13:18:49;34.20;56.80
27376;DHT22;14844;51.302;6.354;2023-07-09T13:21:18;34.00;58.10
27376;DHT22;14844;51.302;6.354;2023-07-09T13:23:44;33.90;60.10
27376;DHT22;14844;51.302;6.354;2023-07-09T13:26:09;33.60;61.10
27376;DHT22;14844;51.302;6.354;2023-07-09T13:28:35;33.20;63.30
27376;DHT22;14844;51.302;6.354;2023-07-09T13:31:01;32.80;63.10
27376;DHT22;14844;51.302;6.354;2023-07-09T13:33:32;32.50;63.70
27376;DHT22;14844;51.302;6.354;2023-07-09T13:35:57;32.40;64.40
27376;DHT22;14844;51.302;6.354;2023-07-09T13:38:23;32.30;64.10
27376;DHT22;14844;51.302;6.354;2023-07-09T13:40:49;32.20;63.40
27376;DHT22;14844;51.302;6.354;2023-07-09T13:43:29;32.10;66.90
27376;DHT22;14844;51.302;6.354;2023-07-09T13:45:55;31.80;68.40
27376;DHT22;14844;51.302;6.354;2023-07-09T13:48:22;31.50;70.10
27376;DHT22;14844;51.302;6.354;2023-07-09T13:50:48;31.20;73.30
27376;DHT22;14844;51.302;6.354;2023-07-09T13:53:16;30.60;74.70
27376;DHT22;14844;51.302;6.354;2023-07-09T13:55:42;30.10;70.60
27376;DHT22;14844;51.302;6.354;2023-07-09T13:58:11;29.30;74.20
27376;DHT22;14844;51.302;6.354;2023-07-09T14:00:39;28.50;78.60
27376;DHT22;14844;51.302;6.354;2023-07-09T14:03:09;27.90;82.30
27376;DHT22;14844;51.302;6.354;2023-07-09T14:05:37;27.50;85.30
27376;DHT22;14844;51.302;6.354;2023-07-09T14:08:03;27.00;88.00
27376;DHT22;14844;51.302;6.354;2023-07-09T14:10:28;26.80;90.00
27376;DHT22;14844;51.302;6.354;2023-07-09T14:12:54;26.50;90.20
27376;DHT22;14844;51.302;6.354;2023-07-09T14:15:21;26.10;90.20
27376;DHT22;14844;51.302;6.354;2023-07-09T14:17:47;25.90;89.40
27376;DHT22;14844;51.302;6.354;2023-07-09T14:20:13;25.60;91.20
27376;DHT22;14844;51.302;6.354;2023-07-09T14:22:40;24.40;97.50
27376;DHT22;14844;51.302;6.354;2023-07-09T14:25:09;23.70;99.90
27376;DHT22;14844;51.302;6.354;2023-07-09T14:27:39;23.00;99.90
27376;DHT22;14844;51.302;6.354;2023-07-09T14:30:05;22.50;99.90
27376;DHT22;14844;51.302;6.354;2023-07-09T14:32:32;22.00;99.90
27376;DHT22;14844;51.302;6.354;2023-07-09T14:34:58;21.60;99.90
27376;DHT22;14844;51.302;6.354;2023-07-09T14:37:23;21.50;99.90
27376;DHT22;14844;51.302;6.354;2023-07-09T14:39:49;21.60;99.90
27376;DHT22;14844;51.302;6.354;2023-07-09T14:42:14;21.60;99.90
27376;DHT22;14844;51.302;6.354;2023-07-09T14:44:41;21.60;99.90
27376;DHT22;14844;51.302;6.354;2023-07-09T14:47:10;21.70;99.90
27376;DHT22;14844;51.302;6.354;2023-07-09T14:49:37;21.80;99.90
27376;DHT22;14844;51.302;6.354;2023-07-09T14:52:02;21.70;99.90
27376;DHT22;14844;51.302;6.354;2023-07-09T14:54:29;21.60;99.90
27376;DHT22;14844;51.302;6.354;2023-07-09T14:56:56;21.70;99.90
27376;DHT22;14844;51.302;6.354;2023-07-09T14:59:22;21.80;99.90
27376;DHT22;14844;51.302;6.354;2023-07-09T15:01:48;21.80;99.90
27376;DHT22;14844;51.302;6.354;2023-07-09T15:06:52;22.10;99.90
27376;DHT22;14844;51.302;6.354;2023-07-09T15:09:19;22.20;99.90
27376;DHT22;14844;51.302;6.354;2023-07-09T15:11:45;22.10;99.90
27376;DHT22;14844;51.302;6.354;2023-07-09T15:14:14;22.10;99.90
27376;DHT22;14844;51.302;6.354;2023-07-09T15:16:40;22.10;99.90
27376;DHT22;14844;51.302;6.354;2023-07-09T15:19:14;22.10;99.90
27376;DHT22;14844;51.302;6.354;2023-07-09T15:21:40;21.90;99.90
27376;DHT22;14844;51.302;6.354;2023-07-09T15:24:32;21.80;99.90
27376;DHT22;14844;51.302;6.354;2023-07-09T15:26:52;21.90;99.90
27376;DHT22;14844;51.302;6.354;2023-07-09T15:29:18;21.90;99.90
27376;DHT22;14844;51.302;6.354;2023-07-09T15:31:44;21.80;99.90
27376;DHT22;14844;51.302;6.354;2023-07-09T15:34:09;21.90;99.90
27376;DHT22;14844;51.302;6.354;2023-07-09T15:36:35;22.00;99.90
27376;DHT22;14844;51.302;6.354;2023-07-09T15:39:01;22.10;99.90
27376;DHT22;14844;51.302;6.354;2023-07-09T15:41:26;22.20;99.90
27376;DHT22;14844;51.302;6.354;2023-07-09T15:43:52;22.30;99.90
27376;DHT22;14844;51.302;6.354;2023-07-09T15:46:21;22.50;99.90
27376;DHT22;14844;51.302;6.354;2023-07-09T15:48:47;22.50;99.90
27376;DHT22;14844;51.302;6.354;2023-07-09T15:51:14;22.70;99.90
27376;DHT22;14844;51.302;6.354;2023-07-09T15:53:40;22.90;99.90